createdAt,value
2024-01-01T00:00:16.356Z,6.90
2024-01-01T00:02:46.590Z,7.68
2024-01-01T00:05:16.500Z,8.60
2024-01-01T00:07:52.390Z,8.68
2024-01-01T00:10:22.220Z,7.85
2024-01-01T00:12:52.013Z,8.73
2024-01-01T00:15:21.811Z,7.28
2024-01-01T00:17:52.860Z,7.05
2024-01-01T00:20:22.673Z,7.60
2024-01-01T00:22:55.561Z,6.53
2024-01-01T00:27:54.930Z,7.57
2024-01-01T00:30:24.703Z,7.10
2024-01-01T00:32:54.898Z,6.97
2024-01-01T00:35:24.738Z,6.80
2024-01-01T00:37:57.282Z,7.90
2024-01-01T00:40:27.572Z,7.43
2024-01-01T00:42:57.336Z,6.10
2024-01-01T00:45:34.006Z,6.70
2024-01-01T00:48:10.654Z,7.22
2024-01-01T00:50:41.117Z,6.53
2024-01-01T00:53:13.630Z,7.20
2024-01-01T00:55:43.801Z,7.97
2024-01-01T00:58:14.197Z,7.82
2024-01-01T01:00:44.014Z,8.70
2024-01-01T01:03:13.936Z,8.90
2024-01-01T01:05:43.983Z,8.07
2024-01-01T01:08:16.671Z,7.38
2024-01-01T01:10:46.825Z,8.25
2024-01-01T01:13:16.923Z,7.57
2024-01-01T01:15:46.773Z,6.68
2024-01-01T01:18:17.030Z,6.68
2024-01-01T01:20:46.844Z,6.65
2024-01-01T01:23:19.527Z,6.07
2024-01-01T01:25:49.319Z,6.53
2024-01-01T01:28:24.541Z,6.00
2024-01-01T01:30:54.699Z,7.10
2024-01-01T01:33:24.958Z,7.68
2024-01-01T01:35:55.201Z,8.27
2024-01-01T01:38:27.603Z,7.43
2024-01-01T01:41:00.347Z,7.78
2024-01-01T01:43:30.544Z,8.23
2024-01-01T01:46:02.317Z,7.13
2024-01-01T01:48:32.836Z,6.88
2024-01-01T01:51:03.865Z,6.25
2024-01-01T01:53:37.912Z,7.15
2024-01-01T01:56:09.458Z,7.05
2024-01-01T01:58:42.258Z,7.28
2024-01-01T02:01:13.540Z,5.68
2024-01-01T02:03:43.863Z,5.50
2024-01-01T02:06:25.315Z,6.68
2024-01-01T02:08:58.072Z,5.63
2024-01-01T02:11:30.156Z,6.15
2024-01-01T02:14:10.229Z,5.57
2024-01-01T02:16:40.226Z,5.68
2024-01-01T02:19:17.771Z,5.22
2024-01-01T02:21:47.602Z,5.53
2024-01-01T02:24:20.260Z,4.85
2024-01-01T02:26:50.186Z,4.93
2024-01-01T02:29:20.119Z,4.82
2024-01-01T02:31:50.287Z,5.80
2024-01-01T02:34:21.477Z,5.05
2024-01-01T02:36:51.246Z,5.07
2024-01-01T02:39:23.940Z,4.65
2024-01-01T02:41:53.742Z,4.65
2024-01-01T02:44:23.809Z,4.60
2024-01-01T02:46:53.746Z,4.97
2024-01-01T02:49:23.769Z,4.65
2024-01-01T02:51:53.800Z,3.90
2024-01-01T02:54:26.492Z,4.53
2024-01-01T02:56:56.692Z,4.72
2024-01-01T02:59:26.823Z,4.45
2024-01-01T03:01:56.596Z,4.22
2024-01-01T03:04:26.655Z,4.20
2024-01-01T03:06:56.616Z,4.18
2024-01-01T03:09:29.197Z,3.65
2024-01-01T03:11:59.277Z,4.45
2024-01-01T03:14:28.999Z,5.05
2024-01-01T03:16:58.854Z,3.60
2024-01-01T03:19:52.125Z,3.85
2024-01-01T03:22:22.319Z,4.13
2024-01-01T03:24:56.738Z,3.78
2024-01-01T03:27:26.777Z,4.10
2024-01-01T03:29:56.537Z,4.10
2024-01-01T03:32:29.710Z,4.03
2024-01-01T03:34:59.535Z,4.22
2024-01-01T03:37:29.653Z,4.35
2024-01-01T03:40:02.337Z,4.78
2024-01-01T03:42:32.116Z,4.05
2024-01-01T03:45:02.154Z,3.65
2024-01-01T03:47:32.088Z,4.38
2024-01-01T03:50:02.358Z,3.97
2024-01-01T03:52:32.378Z,4.28
2024-01-01T03:55:05.414Z,4.10
2024-01-01T04:00:07.928Z,3.78
2024-01-01T04:02:38.549Z,3.88
2024-01-01T04:05:09.417Z,3.95
2024-01-01T04:07:40.202Z,3.78
2024-01-01T04:10:12.936Z,4.53
2024-01-01T04:12:42.777Z,5.07
2024-01-01T04:15:12.626Z,4.07
2024-01-01T04:17:42.926Z,4.40
2024-01-01T04:20:13.955Z,3.78
2024-01-01T04:22:44.501Z,3.88
2024-01-01T04:25:16.869Z,4.78
2024-01-01T04:27:46.924Z,4.68
2024-01-01T04:30:17.018Z,5.15
2024-01-01T04:32:47.097Z,4.88
2024-01-01T04:35:17.124Z,4.50
2024-01-01T04:37:47.190Z,4.75
2024-01-01T04:40:21.747Z,4.85
2024-01-01T04:42:51.902Z,5.47
2024-01-01T04:45:24.342Z,5.03
2024-01-01T04:47:54.272Z,4.95
2024-01-01T04:50:24.905Z,5.05
2024-01-01T04:52:54.681Z,5.82
2024-01-01T04:55:27.439Z,5.03
2024-01-01T04:57:57.431Z,5.07
2024-01-01T05:00:27.189Z,5.00
2024-01-01T05:02:58.052Z,5.53
2024-01-01T05:05:27.988Z,3.97
2024-01-01T05:07:57.952Z,4.68
2024-01-01T05:10:30.389Z,4.70
2024-01-01T05:13:00.424Z,5.32
2024-01-01T05:15:30.581Z,4.70
2024-01-01T05:18:00.878Z,4.95
2024-01-01T05:20:30.680Z,4.90
2024-01-01T05:23:01.008Z,5.18
2024-01-01T05:25:33.447Z,6.53
2024-01-01T05:28:06.866Z,5.32
2024-01-01T05:30:36.904Z,6.03
2024-01-01T05:33:07.124Z,5.40
2024-01-01T05:35:38.445Z,6.15
2024-01-01T05:38:08.481Z,5.40
2024-01-01T05:40:43.647Z,6.50
2024-01-01T05:43:13.765Z,5.70
2024-01-01T05:45:43.534Z,5.57
2024-01-01T05:48:21.684Z,6.05
2024-01-01T05:53:26.680Z,5.28
2024-01-01T05:55:59.236Z,6.22
2024-01-01T05:58:29.361Z,6.95
2024-01-01T06:00:59.180Z,5.65
2024-01-01T06:03:30.434Z,5.63
2024-01-01T06:06:00.632Z,6.13
2024-01-01T06:08:30.537Z,5.28
2024-01-01T06:11:03.232Z,6.18
2024-01-01T06:13:33.019Z,6.07
2024-01-01T06:16:04.687Z,5.45
2024-01-01T06:18:35.037Z,5.70
2024-01-01T06:21:05.021Z,5.68
2024-01-01T06:23:35.192Z,6.20
2024-01-01T06:26:07.834Z,5.40
2024-01-01T06:28:37.970Z,5.47
2024-01-01T06:31:08.089Z,5.40
2024-01-01T06:33:38.193Z,5.03
2024-01-01T06:36:08.799Z,5.90
2024-01-01T06:38:38.826Z,5.50
2024-01-01T06:41:11.336Z,5.28
2024-01-01T06:43:41.199Z,5.18
2024-01-01T06:46:11.322Z,4.72
2024-01-01T06:48:41.229Z,5.25
2024-01-01T06:51:12.647Z,5.97
2024-01-01T06:53:42.818Z,4.88
2024-01-01T06:56:15.607Z,4.70
2024-01-01T06:58:45.825Z,4.75
2024-01-01T07:01:15.758Z,5.47
2024-01-01T07:03:46.041Z,5.25
2024-01-01T07:06:15.972Z,4.85
2024-01-01T07:08:46.337Z,6.00
2024-01-01T07:11:18.744Z,4.72
2024-01-01T07:13:48.843Z,5.32
2024-01-01T07:16:18.629Z,4.95
2024-01-01T07:18:48.637Z,5.93
2024-01-01T07:21:18.502Z,5.78
2024-01-01T07:23:48.296Z,5.97
2024-01-01T07:26:21.290Z,5.90
2024-01-01T07:31:20.901Z,5.53
2024-01-01T07:33:50.809Z,5.70
2024-01-01T07:36:23.557Z,5.25
2024-01-01T07:38:54.431Z,5.35
2024-01-01T07:41:26.839Z,5.72
2024-01-01T07:43:56.838Z,5.78
2024-01-01T07:46:26.639Z,5.07
2024-01-01T07:48:56.856Z,5.32
2024-01-01T07:51:26.904Z,5.38
2024-01-01T07:53:56.642Z,5.03
2024-01-01T07:56:30.040Z,5.05
2024-01-01T07:59:00.273Z,4.57
2024-01-01T08:01:30.357Z,4.88
2024-01-01T08:04:00.158Z,5.22
2024-01-01T08:06:30.248Z,4.50
2024-01-01T08:09:00.047Z,4.68
2024-01-01T08:11:32.717Z,4.78
2024-01-01T08:14:04.775Z,4.40
2024-01-01T08:16:36.553Z,4.45
2024-01-01T08:19:08.317Z,4.38
2024-01-01T08:21:38.290Z,4.20
2024-01-01T08:24:08.564Z,4.20
2024-01-01T08:26:40.936Z,4.00
2024-01-01T08:29:10.793Z,3.92
2024-01-01T08:31:40.651Z,4.25
2024-01-01T08:34:10.735Z,4.07
2024-01-01T08:36:40.794Z,3.22
2024-01-01T08:39:11.389Z,3.85
2024-01-01T08:41:47.440Z,3.70
2024-01-01T08:44:17.759Z,3.25
2024-01-01T08:46:47.642Z,3.53
2024-01-01T08:49:18.090Z,4.00
2024-01-01T08:51:47.893Z,4.57
2024-01-01T08:54:17.962Z,3.28
2024-01-01T08:56:50.577Z,3.53
2024-01-01T08:59:20.433Z,3.17
2024-01-01T09:01:53.136Z,3.75
2024-01-01T09:04:22.964Z,3.90
2024-01-01T09:06:52.723Z,3.47
2024-01-01T09:09:23.714Z,3.40
2024-01-01T09:11:56.112Z,3.05
2024-01-01T09:14:27.474Z,4.43
2024-01-01T09:16:57.354Z,4.03
2024-01-01T09:19:27.615Z,4.57
2024-01-01T09:21:59.239Z,3.88
2024-01-01T09:24:29.235Z,3.58
2024-01-01T09:27:02.260Z,4.15
2024-01-01T09:32:01.974Z,5.25
2024-01-01T09:34:31.862Z,7.35
2024-01-01T09:37:04.016Z,8.02
2024-01-01T09:39:34.512Z,6.55
2024-01-01T09:42:07.854Z,5.75
2024-01-01T09:44:38.851Z,4.75
2024-01-01T09:47:09.579Z,3.08
2024-01-01T09:49:39.753Z,3.33
2024-01-01T09:52:09.997Z,3.55
2024-01-01T09:54:39.865Z,3.55
2024-01-01T09:57:12.845Z,3.08
2024-01-01T10:02:12.904Z,2.83
2024-01-01T10:04:42.793Z,3.47
2024-01-01T10:07:12.703Z,3.72
2024-01-01T10:09:50.813Z,4.15
2024-01-01T10:12:26.426Z,4.07
2024-01-01T10:14:56.205Z,2.78
2024-01-01T10:17:26.161Z,3.20
2024-01-01T10:19:56.628Z,2.90
2024-01-01T10:22:32.349Z,4.25
2024-01-01T10:25:12.904Z,4.32
2024-01-01T10:27:46.578Z,3.20
2024-01-01T10:30:16.496Z,2.88
2024-01-01T10:32:47.887Z,3.22
2024-01-01T10:35:19.431Z,3.28
2024-01-01T10:37:50.697Z,2.72
2024-01-01T10:40:21.669Z,3.15
2024-01-01T10:42:54.622Z,3.65
2024-01-01T10:45:24.627Z,2.45
2024-01-01T10:47:55.903Z,2.38
2024-01-01T10:50:29.859Z,2.90
2024-01-01T10:53:08.636Z,2.65
2024-01-01T10:55:51.588Z,2.42
2024-01-01T10:58:37.116Z,2.83
2024-01-01T11:01:10.495Z,2.00
2024-01-01T11:03:40.470Z,3.05
2024-01-01T11:06:26.268Z,2.70
2024-01-01T11:08:56.277Z,3.63
2024-01-01T11:11:29.432Z,3.25
2024-01-01T11:14:02.379Z,3.30
2024-01-01T11:19:06.465Z,2.60
2024-01-01T11:21:36.824Z,2.63
2024-01-01T11:24:20.871Z,3.65
2024-01-01T11:26:56.868Z,2.80
2024-01-01T11:29:32.502Z,2.80
2024-01-01T11:32:05.639Z,2.05
2024-01-01T11:34:44.057Z,2.45
2024-01-01T11:37:23.007Z,2.65
2024-01-01T11:40:02.375Z,3.05
2024-01-01T11:42:32.234Z,4.10
2024-01-01T11:45:11.345Z,3.25
2024-01-01T11:47:41.942Z,2.72
2024-01-01T11:50:13.605Z,2.30
2024-01-01T11:52:44.244Z,3.75
2024-01-01T11:55:14.121Z,2.13
2024-01-01T11:57:44.636Z,2.70
2024-01-01T12:00:18.271Z,2.60
2024-01-01T12:02:48.195Z,2.28
2024-01-01T12:05:22.420Z,2.60
2024-01-01T12:07:52.687Z,2.13
2024-01-01T12:10:24.858Z,2.53
2024-01-01T12:13:03.948Z,2.90
2024-01-01T12:15:36.902Z,2.28
2024-01-01T12:18:07.092Z,2.03
2024-01-01T12:20:37.280Z,2.63
2024-01-01T12:23:18.576Z,2.55
2024-01-01T12:25:48.798Z,2.17
2024-01-01T12:28:20.437Z,2.67
2024-01-01T12:30:52.831Z,2.20
2024-01-01T12:33:23.311Z,2.55
2024-01-01T12:35:54.625Z,2.03
2024-01-01T12:38:24.489Z,2.15
2024-01-01T12:40:54.350Z,2.17
2024-01-01T12:43:24.797Z,2.33
2024-01-01T12:45:57.180Z,2.70
2024-01-01T12:48:29.185Z,2.13
2024-01-01T12:50:59.043Z,2.33
2024-01-01T12:53:29.197Z,3.00
2024-01-01T12:55:59.046Z,2.83
2024-01-01T12:58:28.849Z,2.30
2024-01-01T13:01:01.773Z,2.60
2024-01-01T13:06:02.467Z,2.83
2024-01-01T13:08:32.546Z,1.38
2024-01-01T13:11:02.373Z,2.40
2024-01-01T13:13:32.952Z,2.20
2024-01-01T13:16:05.328Z,2.55
2024-01-01T13:18:36.413Z,1.60
2024-01-01T13:21:06.553Z,2.40
2024-01-01T13:23:36.795Z,3.00
2024-01-01T13:26:06.937Z,3.10
2024-01-01T13:28:37.035Z,3.70
2024-01-01T13:31:09.930Z,3.03
2024-01-01T13:33:40.187Z,3.10
2024-01-01T13:36:10.500Z,3.05
2024-01-01T13:38:42.475Z,2.17
2024-01-01T13:41:12.475Z,2.80
2024-01-01T13:43:42.789Z,2.03
2024-01-01T13:46:15.834Z,2.50
2024-01-01T13:51:19.867Z,2.47
2024-01-01T13:53:49.891Z,1.63
2024-01-01T13:56:23.064Z,2.20
2024-01-01T13:58:53.579Z,1.92
2024-01-01T14:01:26.012Z,2.58
2024-01-01T14:03:55.923Z,2.45
2024-01-01T14:06:26.210Z,1.90
2024-01-01T14:08:56.365Z,3.00
2024-01-01T14:11:26.377Z,3.00
2024-01-01T14:13:56.615Z,2.05
2024-01-01T14:16:28.928Z,2.28
2024-01-01T14:18:58.839Z,2.60
2024-01-01T14:21:28.663Z,3.72
2024-01-01T14:23:58.723Z,2.42
2024-01-01T14:26:31.676Z,2.22
2024-01-01T14:31:34.105Z,2.47
2024-01-01T14:34:04.275Z,2.50
2024-01-01T14:36:34.472Z,2.22
2024-01-01T14:39:05.458Z,2.00
2024-01-01T14:41:36.545Z,2.38
2024-01-01T14:44:06.883Z,2.08
2024-01-01T14:46:39.399Z,2.13
2024-01-01T14:49:11.103Z,2.08
2024-01-01T14:51:43.939Z,2.13
2024-01-01T14:54:13.856Z,2.70
2024-01-01T14:56:44.047Z,2.53
2024-01-01T14:59:14.920Z,2.38
2024-01-01T15:01:47.417Z,3.35
2024-01-01T15:04:17.219Z,2.63
2024-01-01T15:06:47.057Z,3.92
2024-01-01T15:09:16.824Z,3.33
2024-01-01T15:11:46.672Z,2.15
2024-01-01T15:14:16.981Z,2.45
2024-01-01T15:16:49.460Z,2.58
2024-01-01T15:19:19.921Z,2.55
2024-01-01T15:21:49.709Z,2.22
2024-01-01T15:24:19.680Z,2.40
2024-01-01T15:26:49.462Z,2.00
2024-01-01T15:29:19.256Z,2.30
2024-01-01T15:31:53.826Z,2.30
2024-01-01T15:34:24.732Z,2.90
2024-01-01T15:36:54.804Z,2.55
2024-01-01T15:39:24.653Z,2.60
2024-01-01T15:41:54.611Z,2.05
2024-01-01T15:44:24.705Z,3.10
2024-01-01T15:46:57.136Z,1.55
2024-01-01T15:49:27.080Z,1.80
2024-01-01T15:51:57.075Z,1.27
2024-01-01T15:54:28.004Z,1.40
2024-01-01T15:59:54.254Z,1.88
2024-01-01T16:02:26.710Z,4.05
2024-01-01T16:04:57.440Z,2.88
2024-01-01T16:07:29.133Z,3.50
2024-01-01T16:09:59.008Z,4.18
2024-01-01T16:12:29.006Z,4.35
2024-01-01T16:14:58.810Z,3.13
2024-01-01T16:17:31.355Z,4.65
2024-01-01T16:20:01.790Z,4.85
2024-01-01T16:22:32.555Z,3.40
2024-01-01T16:25:02.365Z,5.53
2024-01-01T16:27:32.145Z,4.82
2024-01-01T16:30:02.060Z,4.35
2024-01-01T16:32:34.578Z,1.98
2024-01-01T16:35:05.493Z,2.50
2024-01-01T16:37:36.420Z,2.15
2024-01-01T16:40:07.217Z,2.72
2024-01-01T16:42:38.453Z,5.72
2024-01-01T16:45:09.484Z,3.75
2024-01-01T16:47:41.983Z,2.70
2024-01-01T16:50:13.471Z,3.05
2024-01-01T16:52:40.949Z,3.25
2024-01-01T16:55:14.288Z,3.08
2024-01-01T16:57:44.729Z,4.13
2024-01-01T17:00:15.486Z,2.92
2024-01-01T17:02:49.857Z,2.90
2024-01-01T17:05:19.980Z,3.03
2024-01-01T17:07:49.863Z,1.75
2024-01-01T17:10:20.059Z,2.67
2024-01-01T17:12:50.194Z,2.88
2024-01-01T17:15:20.222Z,3.05
2024-01-01T17:17:52.936Z,3.10
2024-01-01T17:20:23.290Z,2.80
2024-01-01T17:23:02.666Z,3.35
2024-01-01T17:25:35.656Z,3.05
2024-01-01T17:28:06.783Z,3.70
2024-01-01T17:30:38.246Z,2.72
2024-01-01T17:33:12.213Z,2.78
2024-01-01T17:35:42.746Z,3.22
2024-01-01T17:38:12.550Z,1.92
2024-01-01T17:40:42.477Z,1.67
2024-01-01T17:43:12.721Z,2.70
2024-01-01T17:45:42.479Z,3.17
2024-01-01T17:48:15.298Z,2.67
2024-01-01T17:53:17.276Z,2.75
2024-01-01T17:55:47.192Z,3.05
2024-01-01T17:58:17.220Z,2.80
2024-01-01T18:00:46.999Z,2.65
2024-01-01T18:03:19.423Z,2.97
2024-01-01T18:05:49.364Z,2.90
2024-01-01T18:08:19.694Z,2.53
2024-01-01T18:10:49.559Z,3.08
2024-01-01T18:13:19.416Z,2.65
2024-01-01T18:15:49.239Z,2.92
2024-01-01T18:18:21.745Z,2.78
2024-01-01T18:20:53.001Z,2.50
2024-01-01T18:23:22.975Z,3.05
2024-01-01T18:25:52.772Z,3.38
2024-01-01T18:28:22.686Z,2.65
2024-01-01T18:30:54.992Z,3.00
2024-01-01T18:33:27.664Z,2.70
2024-01-01T18:35:57.454Z,3.78
2024-01-01T18:38:27.603Z,2.58
2024-01-01T18:40:57.674Z,2.42
2024-01-01T18:43:27.455Z,2.95
2024-01-01T18:45:57.340Z,1.95
2024-01-01T18:48:30.835Z,2.83
2024-01-01T18:51:01.058Z,2.55
2024-01-01T18:53:31.588Z,3.20
2024-01-01T18:56:05.810Z,2.70
2024-01-01T18:58:35.868Z,3.13
2024-01-01T19:01:06.753Z,2.95
2024-01-01T19:03:36.637Z,2.92
2024-01-01T19:06:06.978Z,2.42
2024-01-01T19:08:36.937Z,3.50
2024-01-01T19:11:06.966Z,2.83
2024-01-01T19:13:37.173Z,2.42
2024-01-01T19:16:07.428Z,2.47
2024-01-01T19:18:40.387Z,3.08
2024-01-01T19:21:10.308Z,2.58
2024-01-01T19:23:41.333Z,2.28
2024-01-01T19:26:11.122Z,3.92
2024-01-01T19:28:40.981Z,3.88
2024-01-01T19:31:11.139Z,3.35
2024-01-01T19:33:43.553Z,2.90
2024-01-01T19:36:16.788Z,3.47
2024-01-01T19:38:46.931Z,4.03
2024-01-01T19:41:16.744Z,3.08
2024-01-01T19:43:46.585Z,3.47
2024-01-01T19:46:20.797Z,3.72
2024-01-01T19:48:53.347Z,4.50
2024-01-01T19:51:23.148Z,4.32
2024-01-01T19:53:53.320Z,4.97
2024-01-01T19:56:26.669Z,4.72
2024-01-01T19:58:56.482Z,4.40
2024-01-01T20:01:26.586Z,4.90
2024-01-01T20:03:59.766Z,4.35
2024-01-01T20:06:29.616Z,4.00
2024-01-01T20:08:59.470Z,3.90
2024-01-01T20:11:29.382Z,4.10
2024-01-01T20:13:59.198Z,3.47
2024-01-01T20:16:30.063Z,3.28
2024-01-01T20:19:02.505Z,3.65
2024-01-01T20:21:33.719Z,4.93
2024-01-01T20:24:04.399Z,3.00
2024-01-01T20:26:34.293Z,3.75
2024-01-01T20:29:05.895Z,4.00
2024-01-01T20:31:35.644Z,4.28
2024-01-01T20:34:12.316Z,3.70
2024-01-01T20:36:44.354Z,3.58
2024-01-01T20:39:14.338Z,3.60
2024-01-01T20:41:45.133Z,3.40
2024-01-01T20:44:14.966Z,4.05
2024-01-01T20:46:44.998Z,3.42
2024-01-01T20:49:17.469Z,4.20
2024-01-01T20:51:47.637Z,3.75
2024-01-01T20:54:17.843Z,4.30
2024-01-01T20:56:47.766Z,3.95
2024-01-01T20:59:19.050Z,3.85
2024-01-01T21:01:50.474Z,4.75
2024-01-01T21:04:25.746Z,3.33
2024-01-01T21:07:02.229Z,3.63
2024-01-01T21:09:32.111Z,3.35
2024-01-01T21:12:01.956Z,4.15
2024-01-01T21:14:32.346Z,3.90
2024-01-01T21:17:02.283Z,4.07
2024-01-01T21:19:34.760Z,3.85
2024-01-01T21:22:05.008Z,5.00
2024-01-01T21:24:34.804Z,4.28
2024-01-01T21:27:04.662Z,3.85
2024-01-01T21:29:37.484Z,4.18
2024-01-01T21:32:09.694Z,3.88
2024-01-01T21:34:42.348Z,3.65
2024-01-01T21:37:12.258Z,5.22
2024-01-01T21:39:42.184Z,4.97
2024-01-01T21:42:12.072Z,4.38
2024-01-01T21:44:42.373Z,4.75
2024-01-01T21:47:14.536Z,4.68
2024-01-01T21:49:47.520Z,4.63
2024-01-01T21:54:47.148Z,5.00
2024-01-01T21:57:16.966Z,4.65
2024-01-01T21:59:46.726Z,4.18
2024-01-01T22:02:16.909Z,4.00
2024-01-01T22:04:51.672Z,3.60
2024-01-01T22:07:21.706Z,3.63
2024-01-01T22:09:51.611Z,3.75
2024-01-01T22:12:22.550Z,4.05
2024-01-01T22:14:52.306Z,4.60
2024-01-01T22:17:22.689Z,4.10
2024-01-01T22:19:55.433Z,3.42
2024-01-01T22:22:25.651Z,3.47
2024-01-01T22:24:55.504Z,4.60
2024-01-01T22:27:25.314Z,3.28
2024-01-01T22:29:55.055Z,3.55
2024-01-01T22:32:25.022Z,3.58
2024-01-01T22:34:57.524Z,3.13
2024-01-01T22:37:27.287Z,2.78
2024-01-01T22:39:58.596Z,3.45
2024-01-01T22:42:28.460Z,3.15
2024-01-01T22:44:58.265Z,3.45
2024-01-01T22:47:28.668Z,3.60
2024-01-01T22:50:01.238Z,3.08
2024-01-01T22:52:31.216Z,3.60
2024-01-01T22:55:01.018Z,3.42
2024-01-01T22:57:31.354Z,2.70
2024-01-01T23:00:08.783Z,3.05
2024-01-01T23:02:38.597Z,2.42
2024-01-01T23:05:11.235Z,2.50
2024-01-01T23:07:41.041Z,3.00
2024-01-01T23:10:11.477Z,2.40
2024-01-01T23:12:41.213Z,2.80
2024-01-01T23:15:11.672Z,2.38
2024-01-01T23:17:41.574Z,2.72
2024-01-01T23:20:14.670Z,2.40
2024-01-01T23:22:44.511Z,2.08
2024-01-01T23:25:16.223Z,2.40
2024-01-01T23:27:46.139Z,3.10
2024-01-01T23:30:16.530Z,2.10
2024-01-01T23:32:46.403Z,1.98
2024-01-01T23:35:19.258Z,3.08
2024-01-01T23:40:19.245Z,2.95
2024-01-01T23:42:49.249Z,2.58
2024-01-01T23:45:20.544Z,2.92
2024-01-01T23:47:51.877Z,2.97
2024-01-01T23:50:24.292Z,2.13
2024-01-01T23:52:54.445Z,2.65
2024-01-01T23:55:24.861Z,2.53
2024-01-01T23:57:54.974Z,2.17
